createdAt,value
2018-04-11T00:00:06.305Z,18.71
2018-04-11T00:01:06.167Z,18.74
2018-04-11T00:02:06.155Z,18.71
2018-04-11T00:03:06.235Z,18.71
2018-04-11T00:04:06.166Z,18.73
2018-04-11T00:05:06.223Z,18.69
2018-04-11T00:06:06.197Z,18.69
2018-04-11T00:07:06.172Z,18.73
2018-04-11T00:08:06.186Z,18.71
2018-04-11T00:09:06.175Z,18.71
2018-04-11T00:10:06.216Z,18.73
2018-04-11T00:11:06.199Z,18.71
2018-04-11T00:12:06.191Z,18.69
2018-04-11T00:13:06.176Z,18.72
2018-04-11T00:14:06.188Z,18.7
2018-04-11T00:15:06.196Z,18.71
2018-04-11T00:16:06.189Z,18.71
2018-04-11T00:17:06.199Z,18.69
2018-04-11T00:18:06.348Z,18.71
2018-04-11T00:19:06.183Z,18.72
2018-04-11T00:20:06.175Z,18.68
2018-04-11T00:21:06.196Z,18.66
2018-04-11T00:22:06.200Z,18.71
2018-04-11T00:23:06.201Z,18.69
2018-04-11T00:24:06.447Z,18.69
2018-04-11T00:25:06.462Z,18.71
2018-04-11T00:26:06.292Z,18.68
2018-04-11T00:27:06.310Z,18.67
2018-04-11T00:28:06.200Z,18.69
2018-04-11T00:29:06.209Z,18.67
2018-04-11T00:30:06.194Z,18.67
2018-04-11T00:31:06.548Z,18.7
2018-04-11T00:32:06.232Z,18.66
2018-04-11T00:33:06.399Z,18.65
2018-04-11T00:34:06.193Z,18.69
2018-04-11T00:35:06.454Z,18.65
2018-04-11T00:36:06.155Z,18.66
2018-04-11T00:37:06.181Z,18.68
2018-04-11T00:38:06.194Z,18.65
2018-04-11T00:39:06.329Z,18.65
2018-04-11T00:40:06.239Z,18.68
2018-04-11T00:41:06.157Z,18.64
2018-04-11T00:42:06.429Z,18.63
2018-04-11T00:43:06.154Z,18.66
2018-04-11T00:44:06.173Z,18.65
2018-04-11T00:45:06.235Z,18.66
2018-04-11T00:46:06.255Z,18.67
2018-04-11T00:47:06.129Z,18.65
2018-04-11T00:48:06.177Z,18.64
2018-04-11T00:49:06.307Z,18.67
2018-04-11T00:50:06.171Z,18.65
2018-04-11T00:51:06.164Z,18.65
2018-04-11T00:52:06.198Z,18.67
2018-04-11T00:53:06.197Z,18.64
2018-04-11T00:54:06.198Z,18.64
2018-04-11T00:55:06.143Z,18.66
2018-04-11T00:56:06.175Z,18.63
2018-04-11T00:57:06.137Z,18.63
2018-04-11T00:58:06.156Z,18.65
2018-04-11T00:59:06.154Z,18.62
2018-04-11T01:00:06.147Z,18.6
2018-04-11T01:01:06.157Z,18.64
2018-04-11T01:02:06.178Z,18.62
2018-04-11T01:03:06.149Z,18.62
2018-04-11T01:04:06.142Z,18.64
2018-04-11T01:05:06.342Z,18.62
2018-04-11T01:06:06.175Z,18.6
2018-04-11T01:07:06.146Z,18.63
2018-04-11T01:08:06.451Z,18.61
2018-04-11T01:09:06.166Z,18.61
2018-04-11T01:10:06.170Z,18.63
2018-04-11T01:11:06.193Z,18.61
2018-04-11T01:12:06.129Z,18.61
2018-04-11T01:13:06.293Z,18.64
2018-04-11T01:14:06.232Z,18.62
2018-04-11T01:15:06.449Z,18.63
2018-04-11T01:16:06.378Z,18.63
2018-04-11T01:17:06.435Z,18.58
2018-04-11T01:18:06.132Z,18.59
2018-04-11T01:19:06.131Z,18.62
2018-04-11T01:20:06.258Z,18.58
2018-04-11T01:21:06.284Z,18.58
2018-04-11T01:22:06.525Z,18.62
2018-04-11T01:23:06.172Z,18.59
2018-04-11T01:24:06.147Z,18.58
2018-04-11T01:25:06.454Z,18.62
2018-04-11T01:26:06.161Z,18.59
2018-04-11T01:27:06.181Z,18.6
2018-04-11T01:28:06.416Z,18.62
2018-04-11T01:29:06.343Z,18.59
2018-04-11T01:30:06.142Z,18.58
2018-04-11T01:31:06.150Z,18.6
2018-04-11T01:32:06.218Z,18.58
2018-04-11T01:33:06.503Z,18.57
2018-04-11T01:34:06.187Z,18.6
2018-04-11T01:35:06.146Z,18.57
2018-04-11T01:36:06.135Z,18.57
2018-04-11T01:37:06.136Z,18.6
2018-04-11T01:38:06.390Z,18.56
2018-04-11T01:39:06.346Z,18.57
2018-04-11T01:40:06.137Z,18.59
2018-04-11T01:41:06.134Z,18.56
2018-04-11T01:42:06.460Z,18.56
2018-04-11T01:43:06.446Z,18.6
2018-04-11T01:44:06.144Z,18.55
2018-04-11T01:45:06.138Z,18.56
2018-04-11T01:46:06.126Z,18.58
2018-04-11T01:47:06.463Z,18.56
2018-04-11T01:48:06.328Z,18.55
2018-04-11T01:49:06.440Z,18.58
2018-04-11T01:50:06.169Z,18.56
2018-04-11T01:51:06.131Z,18.54
2018-04-11T01:52:06.147Z,18.58
2018-04-11T01:53:06.430Z,18.54
2018-04-11T01:54:06.138Z,18.53
2018-04-11T01:55:06.107Z,18.57
2018-04-11T01:56:06.128Z,18.54
2018-04-11T01:57:06.154Z,18.55
2018-04-11T01:58:06.138Z,18.57
2018-04-11T01:59:06.134Z,18.54
2018-04-11T02:00:06.192Z,18.55
2018-04-11T02:01:06.174Z,18.57
2018-04-11T02:02:06.181Z,18.53
2018-04-11T02:03:06.227Z,18.53
2018-04-11T02:04:06.134Z,18.57
2018-04-11T02:05:06.163Z,18.53
2018-04-11T02:06:06.253Z,18.53
2018-04-11T02:07:06.311Z,18.56
2018-04-11T02:08:06.128Z,18.54
2018-04-11T02:09:06.134Z,18.53
2018-04-11T02:10:06.203Z,18.55
2018-04-11T02:11:06.224Z,18.53
2018-04-11T02:12:06.167Z,18.52
2018-04-11T02:13:06.376Z,18.55
2018-04-11T02:14:06.487Z,18.53
2018-04-11T02:15:06.168Z,18.53
2018-04-11T02:16:06.146Z,18.56
2018-04-11T02:17:06.463Z,18.52
2018-04-11T02:18:06.388Z,18.53
2018-04-11T02:19:06.353Z,18.56
2018-04-11T02:20:06.137Z,18.52
2018-04-11T02:21:06.126Z,18.52
2018-04-11T02:22:06.252Z,18.55
2018-04-11T02:23:06.433Z,18.51
2018-04-11T02:24:06.362Z,18.51
2018-04-11T02:25:06.102Z,18.55
2018-04-11T02:26:06.132Z,18.51
2018-04-11T02:27:06.149Z,18.51
2018-04-11T02:28:06.237Z,18.54
2018-04-11T02:29:06.122Z,18.52
2018-04-11T02:30:06.125Z,18.51
2018-04-11T02:31:06.123Z,18.54
2018-04-11T02:32:06.217Z,18.51
2018-04-11T02:33:06.131Z,18.49
2018-04-11T02:34:06.097Z,18.54
2018-04-11T02:35:06.265Z,18.5
2018-04-11T02:36:06.218Z,18.51
2018-04-11T02:37:06.166Z,18.53
2018-04-11T02:38:06.134Z,18.5
2018-04-11T02:39:06.484Z,18.49
2018-04-11T02:40:06.150Z,18.53
2018-04-11T02:41:06.549Z,18.5
2018-04-11T02:42:06.139Z,18.5
2018-04-11T02:43:06.113Z,18.53
2018-04-11T02:44:06.426Z,18.49
2018-04-11T02:45:06.147Z,18.48
2018-04-11T02:46:06.144Z,18.52
2018-04-11T02:47:06.133Z,18.48
2018-04-11T02:48:06.651Z,18.49
2018-04-11T02:49:06.443Z,18.52
2018-04-11T02:50:06.189Z,18.49
2018-04-11T02:51:06.111Z,18.5
2018-04-11T02:52:06.151Z,18.52
2018-04-11T02:53:06.198Z,18.48
2018-04-11T02:54:06.273Z,18.48
2018-04-11T02:55:06.160Z,18.51
2018-04-11T02:56:06.255Z,18.47
2018-04-11T02:57:06.322Z,18.47
2018-04-11T02:58:06.102Z,18.5
2018-04-11T02:59:06.438Z,18.48
2018-04-11T03:00:06.131Z,18.48
2018-04-11T03:01:06.164Z,18.51
2018-04-11T03:02:06.179Z,18.48
2018-04-11T03:03:06.131Z,18.47
2018-04-11T03:04:06.483Z,18.5
2018-04-11T03:05:06.146Z,18.46
2018-04-11T03:06:06.321Z,18.48
2018-04-11T03:07:06.345Z,18.5
2018-04-11T03:08:06.383Z,18.46
2018-04-11T03:09:06.198Z,18.47
2018-04-11T03:10:06.549Z,18.5
2018-04-11T03:11:06.089Z,18.48
2018-04-11T03:12:06.593Z,18.47
2018-04-11T03:13:06.084Z,18.5
2018-04-11T03:14:06.156Z,18.47
2018-04-11T03:15:06.128Z,18.45
2018-04-11T03:16:06.088Z,18.47
2018-04-11T03:17:06.559Z,18.46
2018-04-11T03:18:06.128Z,18.46
2018-04-11T03:19:06.076Z,18.49
2018-04-11T03:20:06.147Z,18.45
2018-04-11T03:21:06.370Z,18.46
2018-04-11T03:22:06.456Z,18.5
2018-04-11T03:23:06.224Z,18.47
2018-04-11T03:24:06.334Z,18.45
2018-04-11T03:25:06.122Z,18.49
2018-04-11T03:26:06.278Z,18.45
2018-04-11T03:27:06.128Z,18.45
2018-04-11T03:28:06.523Z,18.48
2018-04-11T03:29:06.144Z,18.45
2018-04-11T03:30:06.134Z,18.44
2018-04-11T03:31:06.120Z,18.47
2018-04-11T03:32:06.140Z,18.42
2018-04-11T03:33:06.111Z,18.43
2018-04-11T03:34:06.123Z,18.46
2018-04-11T03:35:06.102Z,18.43
2018-04-11T03:36:06.114Z,18.43
2018-04-11T03:37:06.113Z,18.47
2018-04-11T03:38:06.120Z,18.44
2018-04-11T03:39:06.333Z,18.44
2018-04-11T03:40:06.091Z,18.47
2018-04-11T03:41:06.100Z,18.42
2018-04-11T03:42:06.209Z,18.43
2018-04-11T03:43:06.097Z,18.46
2018-04-11T03:44:06.127Z,18.43
2018-04-11T03:45:06.084Z,18.43
2018-04-11T03:46:06.111Z,18.46
2018-04-11T03:47:06.103Z,18.43
2018-04-11T03:48:06.452Z,18.43
2018-04-11T03:49:06.130Z,18.46
2018-04-11T03:50:06.109Z,18.43
2018-04-11T03:51:06.091Z,18.44
2018-04-11T03:52:06.536Z,18.46
2018-04-11T03:53:06.132Z,18.44
2018-04-11T03:54:06.332Z,18.44
2018-04-11T03:55:06.156Z,18.47
2018-04-11T03:56:06.400Z,18.47
2018-04-11T03:57:06.110Z,18.45
2018-04-11T03:58:06.116Z,18.48
2018-04-11T03:59:06.146Z,18.47
2018-04-11T04:00:06.193Z,18.48
2018-04-11T04:01:06.101Z,18.5
2018-04-11T04:02:06.102Z,18.49
2018-04-11T04:03:06.144Z,18.49
2018-04-11T04:04:06.102Z,18.53
2018-04-11T04:05:06.167Z,18.51
2018-04-11T04:06:06.105Z,18.52
2018-04-11T04:07:06.115Z,18.54
2018-04-11T04:08:06.096Z,18.54
2018-04-11T04:09:06.376Z,18.54
2018-04-11T04:10:06.140Z,18.58
2018-04-11T04:11:06.103Z,18.59
2018-04-11T04:12:06.528Z,18.6
2018-04-11T04:13:06.132Z,18.63
2018-04-11T04:14:06.161Z,18.63
2018-04-11T04:15:06.142Z,18.65
2018-04-11T04:16:06.513Z,18.68
2018-04-11T04:17:06.345Z,18.69
2018-04-11T04:18:06.081Z,18.69
2018-04-11T04:19:06.229Z,18.72
2018-04-11T04:20:06.119Z,18.73
2018-04-11T04:21:06.125Z,18.75
2018-04-11T04:22:06.432Z,18.76
2018-04-11T04:23:06.083Z,18.76
2018-04-11T04:24:06.315Z,18.78
2018-04-11T04:25:06.094Z,18.81
2018-04-11T04:26:06.211Z,18.81
2018-04-11T04:27:06.106Z,18.83
2018-04-11T04:28:06.147Z,18.85
2018-04-11T04:29:06.133Z,18.85
2018-04-11T04:30:06.074Z,18.87
2018-04-11T04:31:06.087Z,18.89
2018-04-11T04:32:06.162Z,18.9
2018-04-11T04:33:06.072Z,18.91
2018-04-11T04:34:06.184Z,18.94
2018-04-11T04:35:06.099Z,18.93
2018-04-11T04:36:06.107Z,18.95
2018-04-11T04:37:06.720Z,18.98
2018-04-11T04:38:06.108Z,18.98
2018-04-11T04:39:06.109Z,18.99
2018-04-11T04:40:06.257Z,19.01
2018-04-11T04:41:06.070Z,19.01
2018-04-11T04:42:06.195Z,19.03
2018-04-11T04:43:06.093Z,19.05
2018-04-11T04:44:06.179Z,19.05
2018-04-11T04:45:06.084Z,19.05
2018-04-11T04:46:06.188Z,19.08
2018-04-11T04:47:06.145Z,19.09
2018-04-11T04:48:06.111Z,19.09
2018-04-11T04:49:06.402Z,19.12
2018-04-11T04:50:06.119Z,19.12
2018-04-11T04:51:06.216Z,19.13
2018-04-11T04:52:06.666Z,19.15
2018-04-11T04:53:06.185Z,19.15
2018-04-11T04:54:06.191Z,19.16
2018-04-11T04:55:06.103Z,19.18
2018-04-11T04:56:06.132Z,19.18
2018-04-11T04:57:06.070Z,19.18
2018-04-11T04:58:06.164Z,19.21
2018-04-11T04:59:06.129Z,19.21
2018-04-11T05:00:06.076Z,19.22
2018-04-11T05:01:06.129Z,19.24
2018-04-11T05:02:06.124Z,19.23
2018-04-11T05:03:06.359Z,19.25
2018-04-11T05:04:06.051Z,19.28
2018-04-11T05:05:06.222Z,19.27
2018-04-11T05:06:06.492Z,19.3
2018-04-11T05:07:06.104Z,19.32
2018-04-11T05:08:06.089Z,19.32
2018-04-11T05:09:06.055Z,19.33
2018-04-11T05:10:06.039Z,19.35
2018-04-11T05:11:06.632Z,19.35
2018-04-11T05:12:06.058Z,19.37
2018-04-11T05:13:06.170Z,19.38
2018-04-11T05:14:06.060Z,19.39
2018-04-11T05:15:06.193Z,19.39
2018-04-11T05:16:06.122Z,19.41
2018-04-11T05:17:06.059Z,19.41
2018-04-11T05:18:06.185Z,19.42
2018-04-11T05:19:06.081Z,19.44
2018-04-11T05:20:06.061Z,19.44
2018-04-11T05:21:06.071Z,19.44
2018-04-11T05:22:06.088Z,19.45
2018-04-11T05:23:06.149Z,19.46
2018-04-11T05:24:06.196Z,19.47
2018-04-11T05:25:06.476Z,19.48
2018-04-11T05:26:06.049Z,19.48
2018-04-11T05:27:06.098Z,19.47
2018-04-11T05:28:06.086Z,19.49
2018-04-11T05:29:06.055Z,19.5
2018-04-11T05:30:06.035Z,19.48
2018-04-11T05:31:06.076Z,19.5
2018-04-11T05:32:06.083Z,19.51
2018-04-11T05:33:06.129Z,19.51
2018-04-11T05:34:06.469Z,19.52
2018-04-11T05:35:06.142Z,19.53
2018-04-11T05:36:06.057Z,19.52
2018-04-11T05:37:06.048Z,19.53
2018-04-11T05:38:06.040Z,19.54
2018-04-11T05:39:06.077Z,19.54
2018-04-11T05:40:06.042Z,19.55
2018-04-11T05:41:06.082Z,19.55
2018-04-11T05:42:06.283Z,19.55
2018-04-11T05:43:06.070Z,19.57
2018-04-11T05:44:06.457Z,19.57
2018-04-11T05:45:06.113Z,19.56
2018-04-11T05:46:06.063Z,19.6
2018-04-11T05:47:06.117Z,19.58
2018-04-11T05:48:06.037Z,19.6
2018-04-11T05:49:06.074Z,19.63
2018-04-11T05:50:06.090Z,19.64
2018-04-11T05:51:06.069Z,19.65
2018-04-11T05:52:06.073Z,19.67
2018-04-11T05:53:06.094Z,19.67
2018-04-11T05:54:06.045Z,19.69
2018-04-11T05:55:06.080Z,19.71
2018-04-11T05:56:06.032Z,19.72
2018-04-11T05:57:06.091Z,19.74
2018-04-11T05:58:06.141Z,19.77
2018-04-11T05:59:06.060Z,19.77
2018-04-11T06:00:06.049Z,19.78
2018-04-11T06:01:06.101Z,19.8
2018-04-11T06:02:06.038Z,19.81
2018-04-11T06:03:06.153Z,19.81
2018-04-11T06:04:06.046Z,19.84
2018-04-11T06:05:06.065Z,19.85
2018-04-11T06:06:06.073Z,19.85
2018-04-11T06:07:06.063Z,19.88
2018-04-11T06:08:06.083Z,19.87
2018-04-11T06:09:06.280Z,19.87
2018-04-11T06:10:06.039Z,19.88
2018-04-11T06:11:06.024Z,19.84
2018-04-11T06:12:06.069Z,19.82
2018-04-11T06:13:06.100Z,19.83
2018-04-11T06:14:06.230Z,19.8
2018-04-11T06:15:06.073Z,19.8
2018-04-11T06:16:06.167Z,19.81
2018-04-11T06:17:06.190Z,19.8
2018-04-11T06:18:06.082Z,19.79
2018-04-11T06:19:06.091Z,19.81
2018-04-11T06:20:06.132Z,19.8
2018-04-11T06:21:06.086Z,19.81
2018-04-11T06:22:06.057Z,19.86
2018-04-11T06:23:06.553Z,19.83
2018-04-11T06:24:06.216Z,19.82
2018-04-11T06:25:06.037Z,19.85
2018-04-11T06:26:06.071Z,19.83
2018-04-11T06:27:06.065Z,19.83
2018-04-11T06:28:06.123Z,19.85
2018-04-11T06:29:06.228Z,19.83
2018-04-11T06:30:06.272Z,19.8
2018-04-11T06:31:06.097Z,19.84
2018-04-11T06:32:06.057Z,19.82
2018-04-11T06:33:06.047Z,19.81
2018-04-11T06:34:06.091Z,19.82
2018-04-11T06:35:06.116Z,19.81
2018-04-11T06:36:06.014Z,19.81
2018-04-11T06:37:06.071Z,19.83
2018-04-11T06:38:06.079Z,19.83
2018-04-11T06:39:06.082Z,19.82
2018-04-11T06:40:06.044Z,19.84
2018-04-11T06:41:06.229Z,19.83
2018-04-11T06:42:06.080Z,19.83
2018-04-11T06:43:06.196Z,19.83
2018-04-11T06:44:06.079Z,19.82
2018-04-11T06:45:06.073Z,19.81
2018-04-11T06:46:06.066Z,19.83
2018-04-11T06:47:06.060Z,19.8
2018-04-11T06:48:06.043Z,19.78
2018-04-11T06:49:06.070Z,19.79
2018-04-11T06:50:06.081Z,19.74
2018-04-11T06:51:06.064Z,19.78
2018-04-11T06:52:06.021Z,19.82
2018-04-11T06:53:06.048Z,19.81
2018-04-11T06:54:06.055Z,19.81
2018-04-11T06:55:06.065Z,19.86
2018-04-11T06:56:06.047Z,19.84
2018-04-11T06:57:06.073Z,19.84
2018-04-11T06:58:06.032Z,19.88
2018-04-11T06:59:06.069Z,19.86
2018-04-11T07:00:06.089Z,19.87
2018-04-11T07:01:06.078Z,19.9
2018-04-11T07:02:06.168Z,19.87
2018-04-11T07:03:06.048Z,19.89
2018-04-11T07:04:06.053Z,19.92
2018-04-11T07:05:06.219Z,19.91
2018-04-11T07:06:06.064Z,19.95
2018-04-11T07:07:06.053Z,19.98
2018-04-11T07:08:06.068Z,19.88
2018-04-11T07:09:06.039Z,19.89
2018-04-11T07:10:06.047Z,19.94
2018-04-11T07:11:06.032Z,19.91
2018-04-11T07:12:06.030Z,19.91
2018-04-11T07:13:06.060Z,19.93
2018-04-11T07:14:06.219Z,19.91
2018-04-11T07:15:06.048Z,19.91
2018-04-11T07:16:06.026Z,19.93
2018-04-11T07:17:06.040Z,19.92
2018-04-11T07:18:06.028Z,19.88
2018-04-11T07:19:06.208Z,19.94
2018-04-11T07:20:06.070Z,19.91
2018-04-11T07:21:06.013Z,19.9
2018-04-11T07:22:06.047Z,19.92
2018-04-11T07:23:06.107Z,19.88
2018-04-11T07:24:06.225Z,19.88
2018-04-11T07:25:06.195Z,19.9
2018-04-11T07:26:06.051Z,19.84
2018-04-11T07:27:06.046Z,19.84
2018-04-11T07:28:06.017Z,19.88
2018-04-11T07:29:06.016Z,19.85
2018-04-11T07:30:06.035Z,19.85
2018-04-11T07:31:06.046Z,19.88
2018-04-11T07:32:06.020Z,19.85
2018-04-11T07:33:06.050Z,19.86
2018-04-11T07:34:06.055Z,19.88
2018-04-11T07:35:06.139Z,19.85
2018-04-11T07:36:06.145Z,19.85
2018-04-11T07:37:06.009Z,19.88
2018-04-11T07:38:06.169Z,19.86
2018-04-11T07:39:06.018Z,19.85
2018-04-11T07:40:06.063Z,19.88
2018-04-11T07:41:06.249Z,19.86
2018-04-11T07:42:06.034Z,19.83
2018-04-11T07:43:06.015Z,19.87
2018-04-11T07:44:06.062Z,19.84
2018-04-11T07:45:06.073Z,19.84
2018-04-11T07:46:06.047Z,19.88
2018-04-11T07:47:06.031Z,19.85
2018-04-11T07:48:06.043Z,19.84
2018-04-11T07:49:06.030Z,19.87
2018-04-11T07:50:06.052Z,19.84
2018-04-11T07:51:06.044Z,19.85
2018-04-11T07:52:06.028Z,19.87
2018-04-11T07:53:06.075Z,19.85
2018-04-11T07:54:06.494Z,19.83
2018-04-11T07:55:06.016Z,19.87
2018-04-11T07:56:06.024Z,19.84
2018-04-11T07:57:05.991Z,19.83
2018-04-11T07:58:06.036Z,19.87
2018-04-11T07:59:05.997Z,19.84
2018-04-11T08:00:06.002Z,19.84
2018-04-11T08:01:06.029Z,19.87
2018-04-11T08:02:06.028Z,19.82
2018-04-11T08:03:06.055Z,19.8
2018-04-11T08:04:06.126Z,19.86
2018-04-11T08:05:06.045Z,19.83
2018-04-11T08:06:06.018Z,19.81
2018-04-11T08:07:06.011Z,19.86
2018-04-11T08:08:06.151Z,19.82
2018-04-11T08:09:06.040Z,19.81
2018-04-11T08:10:06.099Z,19.86
2018-04-11T08:11:06.064Z,19.81
2018-04-11T08:12:06.027Z,19.8
2018-04-11T08:13:06.076Z,19.83
2018-04-11T08:14:06.013Z,19.79
2018-04-11T08:15:06.093Z,19.78
2018-04-11T08:16:05.994Z,19.81
2018-04-11T08:17:06.061Z,19.77
2018-04-11T08:18:06.084Z,19.75
2018-04-11T08:19:06.012Z,19.79
2018-04-11T08:20:05.975Z,19.75
2018-04-11T08:21:06.034Z,19.72
2018-04-11T08:22:06.041Z,19.77
2018-04-11T08:23:06.045Z,19.73
2018-04-11T08:24:06.043Z,19.71
2018-04-11T08:25:06.010Z,19.75
2018-04-11T08:26:06.126Z,19.71
2018-04-11T08:27:06.020Z,19.69
2018-04-11T08:28:06.048Z,19.72
2018-04-11T08:29:06.025Z,19.69
2018-04-11T08:30:06.025Z,19.68
2018-04-11T08:31:06.037Z,19.71
2018-04-11T08:32:06.019Z,19.66
2018-04-11T08:33:06.180Z,19.65
2018-04-11T08:34:06.082Z,19.69
2018-04-11T08:35:06.027Z,19.65
2018-04-11T08:36:05.995Z,19.63
2018-04-11T08:37:06.003Z,19.69
2018-04-11T08:38:06.058Z,19.62
2018-04-11T08:39:06.015Z,19.6
2018-04-11T08:40:06.036Z,19.65
2018-04-11T08:41:06.000Z,19.62
2018-04-11T08:42:06.040Z,19.6
2018-04-11T08:43:05.983Z,19.63
2018-04-11T08:44:06.038Z,19.59
2018-04-11T08:45:05.993Z,19.58
2018-04-11T08:46:05.998Z,19.6
2018-04-11T08:47:05.999Z,19.55
2018-04-11T08:48:06.060Z,19.57
2018-04-11T08:49:06.000Z,19.58
2018-04-11T08:50:06.006Z,19.55
2018-04-11T08:51:06.041Z,19.54
2018-04-11T08:52:06.034Z,19.55
2018-04-11T08:53:05.996Z,19.52
2018-04-11T08:54:06.046Z,19.51
2018-04-11T08:55:05.982Z,19.52
2018-04-11T08:56:06.004Z,19.49
2018-04-11T08:57:05.994Z,19.46
2018-04-11T08:58:05.997Z,19.53
2018-04-11T08:59:06.013Z,19.5
2018-04-11T09:00:06.026Z,19.49
2018-04-11T09:01:05.993Z,19.54
2018-04-11T09:02:05.991Z,19.5
2018-04-11T09:03:06.071Z,19.49
2018-04-11T09:04:06.011Z,19.54
2018-04-11T09:05:05.978Z,19.52
2018-04-11T09:06:06.036Z,19.5
2018-04-11T09:07:06.015Z,19.55
2018-04-11T09:08:06.108Z,19.53
2018-04-11T09:09:06.057Z,19.51
2018-04-11T09:10:05.993Z,19.56
2018-04-11T09:11:05.999Z,19.52
2018-04-11T09:12:06.069Z,19.51
2018-04-11T09:13:06.023Z,19.58
2018-04-11T09:14:05.968Z,19.54
2018-04-11T09:15:06.006Z,19.53
2018-04-11T09:16:05.984Z,19.57
2018-04-11T09:17:05.987Z,19.53
2018-04-11T09:18:05.998Z,19.53
2018-04-11T09:19:06.050Z,19.58
2018-04-11T09:20:06.028Z,19.56
2018-04-11T09:21:06.005Z,19.52
2018-04-11T09:22:06.037Z,19.6
2018-04-11T09:23:06.036Z,19.54
2018-04-11T09:24:06.076Z,19.51
2018-04-11T09:25:06.140Z,19.58
2018-04-11T09:26:06.241Z,19.55
2018-04-11T09:27:06.431Z,19.54
2018-04-11T09:28:05.991Z,19.6
2018-04-11T09:29:05.984Z,19.54
2018-04-11T09:30:05.976Z,19.51
2018-04-11T09:31:05.979Z,19.58
2018-04-11T09:32:05.972Z,19.52
2018-04-11T09:33:06.136Z,19.54
2018-04-11T09:34:06.037Z,19.58
2018-04-11T09:35:05.948Z,19.54
2018-04-11T09:36:05.976Z,19.53
2018-04-11T09:37:05.995Z,19.57
2018-04-11T09:38:06.008Z,19.54
2018-04-11T09:39:06.012Z,19.53
2018-04-11T09:40:06.120Z,19.59
2018-04-11T09:41:06.032Z,19.53
2018-04-11T09:42:05.973Z,19.54
2018-04-11T09:43:05.971Z,19.58
2018-04-11T09:44:05.990Z,19.53
2018-04-11T09:45:06.029Z,19.5
2018-04-11T09:46:06.074Z,19.57
2018-04-11T09:47:05.996Z,19.52
2018-04-11T09:48:05.999Z,19.52
2018-04-11T09:49:06.012Z,19.58
2018-04-11T09:50:05.999Z,19.54
2018-04-11T09:51:06.059Z,19.54
2018-04-11T09:52:05.989Z,19.58
2018-04-11T09:53:06.007Z,19.53
2018-04-11T09:54:05.975Z,19.52
2018-04-11T09:55:05.980Z,19.57
2018-04-11T09:56:05.991Z,19.51
2018-04-11T09:57:05.986Z,19.49
2018-04-11T09:58:06.168Z,19.54
2018-04-11T09:59:05.969Z,19.51
2018-04-11T10:00:05.991Z,19.49
2018-04-11T10:01:05.981Z,19.54
2018-04-11T10:02:05.993Z,19.47
2018-04-11T10:03:06.008Z,19.47
2018-04-11T10:04:05.976Z,19.52
2018-04-11T10:05:05.974Z,19.46
2018-04-11T10:06:06.004Z,19.45
2018-04-11T10:07:05.982Z,19.51
2018-04-11T10:08:06.004Z,19.45
2018-04-11T10:09:05.980Z,19.42
2018-04-11T10:10:05.988Z,19.48
2018-04-11T10:11:05.974Z,19.44
2018-04-11T10:12:05.970Z,19.41
2018-04-11T10:13:06.123Z,19.48
2018-04-11T10:14:06.037Z,19.4
2018-04-11T10:15:05.979Z,19.4
2018-04-11T10:16:06.009Z,19.46
2018-04-11T10:17:05.996Z,19.39
2018-04-11T10:18:06.162Z,19.38
2018-04-11T10:19:06.074Z,19.44
2018-04-11T10:20:05.976Z,19.38
2018-04-11T10:21:06.113Z,19.36
2018-04-11T10:22:05.988Z,19.42
2018-04-11T10:23:06.002Z,19.38
2018-04-11T10:24:05.999Z,19.36
2018-04-11T10:25:06.038Z,19.4
2018-04-11T10:26:05.982Z,19.38
2018-04-11T10:27:06.002Z,19.38
2018-04-11T10:28:06.225Z,19.4
2018-04-11T10:29:05.992Z,19.35
2018-04-11T10:30:06.035Z,19.34
2018-04-11T10:31:06.025Z,19.37
2018-04-11T10:32:06.138Z,19.35
2018-04-11T10:33:06.109Z,19.31
2018-04-11T10:34:06.188Z,19.35
2018-04-11T10:35:05.973Z,19.31
2018-04-11T10:36:06.067Z,19.27
2018-04-11T10:37:06.018Z,19.31
2018-04-11T10:38:06.097Z,19.28
2018-04-11T10:39:06.027Z,19.27
2018-04-11T10:40:06.196Z,19.31
2018-04-11T10:41:06.000Z,19.26
2018-04-11T10:42:05.970Z,19.24
2018-04-11T10:43:06.119Z,19.29
2018-04-11T10:44:05.968Z,19.23
2018-04-11T10:45:06.012Z,19.23
2018-04-11T10:46:05.988Z,19.27
2018-04-11T10:47:05.974Z,19.23
2018-04-11T10:48:06.017Z,19.21
2018-04-11T10:49:05.966Z,19.25
2018-04-11T10:50:05.985Z,19.22
2018-04-11T10:51:05.991Z,19.21
2018-04-11T10:52:05.990Z,19.24
2018-04-11T10:53:05.973Z,19.21
2018-04-11T10:54:05.973Z,19.19
2018-04-11T10:55:06.001Z,19.23
2018-04-11T10:56:05.974Z,19.18
2018-04-11T10:57:05.960Z,19.18
2018-04-11T10:58:05.972Z,19.22
2018-04-11T10:59:05.974Z,19.17
2018-04-11T11:00:05.968Z,19.16
2018-04-11T11:01:06.013Z,19.21
2018-04-11T11:02:05.995Z,19.15
2018-04-11T11:03:05.954Z,19.16
2018-04-11T11:04:05.973Z,19.2
2018-04-11T11:05:05.963Z,19.16
2018-04-11T11:06:05.980Z,19.13
2018-04-11T11:07:05.981Z,19.19
2018-04-11T11:08:06.047Z,19.16
2018-04-11T11:09:05.941Z,19.13
2018-04-11T11:10:05.980Z,19.18
2018-04-11T11:11:05.999Z,19.14
2018-04-11T11:12:06.136Z,19.11
2018-04-11T11:13:05.976Z,19.16
2018-04-11T11:14:06.016Z,19.1
2018-04-11T11:15:05.967Z,19.09
2018-04-11T11:16:05.954Z,19.14
2018-04-11T11:17:05.949Z,19.11
2018-04-11T11:18:05.968Z,19.1
2018-04-11T11:19:05.991Z,19.14
2018-04-11T11:20:06.042Z,19.09
2018-04-11T11:21:06.093Z,19.08
2018-04-11T11:22:05.979Z,19.13
2018-04-11T11:23:06.017Z,19.09
2018-04-11T11:24:05.984Z,19.08
2018-04-11T11:25:05.967Z,19.12
2018-04-11T11:26:06.122Z,19.06
2018-04-11T11:27:06.047Z,19.07
2018-04-11T11:28:06.000Z,19.11
2018-04-11T11:29:05.986Z,19.07
2018-04-11T11:30:05.928Z,19.05
2018-04-11T11:31:05.945Z,19.12
2018-04-11T11:32:06.194Z,19.07
2018-04-11T11:33:05.994Z,19.05
2018-04-11T11:34:05.946Z,19.1
2018-04-11T11:35:05.975Z,19.05
2018-04-11T11:36:05.982Z,19.05
2018-04-11T11:37:05.959Z,19.1
2018-04-11T11:38:05.953Z,19.05
2018-04-11T11:39:05.923Z,19.05
2018-04-11T11:40:05.972Z,19.08
2018-04-11T11:41:06.121Z,19.03
2018-04-11T11:42:05.965Z,19.04
2018-04-11T11:43:05.956Z,19.08
2018-04-11T11:44:06.007Z,19.02
2018-04-11T11:45:05.959Z,19.03
2018-04-11T11:46:05.988Z,19.07
2018-04-11T11:47:06.075Z,19
2018-04-11T11:48:05.946Z,19.01
2018-04-11T11:49:06.126Z,19.07
2018-04-11T11:50:05.971Z,19.01
2018-04-11T11:51:05.944Z,19.03
2018-04-11T11:52:06.017Z,19.04
2018-04-11T11:53:05.942Z,19
2018-04-11T11:54:06.042Z,18.99
2018-04-11T11:55:06.001Z,19.05
2018-04-11T11:56:05.954Z,18.99
2018-04-11T11:57:05.940Z,19.01
2018-04-11T11:58:05.956Z,19.08
2018-04-11T11:59:06.160Z,19.05
2018-04-11T12:00:05.963Z,19.04
2018-04-11T12:01:05.977Z,19.1
2018-04-11T12:02:05.928Z,19.06
2018-04-11T12:03:05.918Z,19.06
2018-04-11T12:04:05.951Z,19.11
2018-04-11T12:05:05.935Z,19.07
2018-04-11T12:06:05.968Z,19.06
2018-04-11T12:07:05.965Z,19.11
2018-04-11T12:08:05.975Z,19.07
2018-04-11T12:09:06.110Z,19.04
2018-04-11T12:10:05.949Z,19.1
2018-04-11T12:11:05.933Z,19.06
2018-04-11T12:12:05.919Z,19.03
2018-04-11T12:13:05.955Z,19.09
2018-04-11T12:14:05.947Z,19.04
2018-04-11T12:15:05.917Z,19.03
2018-04-11T12:16:05.987Z,19.1
2018-04-11T12:17:05.933Z,19.05
2018-04-11T12:18:05.935Z,19.05
2018-04-11T12:19:06.074Z,19.09
2018-04-11T12:20:06.090Z,19.05
2018-04-11T12:21:05.966Z,19.06
2018-04-11T12:22:05.975Z,19.1
2018-04-11T12:23:05.970Z,19.08
2018-04-11T12:24:06.264Z,19.08
2018-04-11T12:25:05.968Z,19.14
2018-04-11T12:26:05.937Z,19.09
2018-04-11T12:27:05.914Z,19.09
2018-04-11T12:28:06.068Z,19.14
2018-04-11T12:29:05.972Z,19.12
2018-04-11T12:30:05.959Z,19.11
2018-04-11T12:31:05.933Z,19.19
2018-04-11T12:32:06.006Z,19.15
2018-04-11T12:33:06.069Z,19.15
2018-04-11T12:34:06.115Z,19.2
2018-04-11T12:35:05.933Z,19.18
2018-04-11T12:36:05.999Z,19.18
2018-04-11T12:37:06.196Z,19.23
2018-04-11T12:38:05.993Z,19.19
2018-04-11T12:39:05.949Z,19.17
2018-04-11T12:40:05.915Z,19.2
2018-04-11T12:41:05.927Z,19.15
2018-04-11T12:42:06.135Z,19.15
2018-04-11T12:43:05.956Z,19.2
2018-04-11T12:44:05.979Z,19.14
2018-04-11T12:45:06.094Z,19.12
2018-04-11T12:46:05.929Z,19.18
2018-04-11T12:47:05.938Z,19.12
2018-04-11T12:48:06.226Z,19.1
2018-04-11T12:49:05.968Z,19.17
2018-04-11T12:50:05.963Z,19.11
2018-04-11T12:51:06.001Z,19.09
2018-04-11T12:52:05.961Z,19.15
2018-04-11T12:53:05.924Z,19.12
2018-04-11T12:54:05.960Z,19.12
2018-04-11T12:55:05.934Z,19.17